createdAt,value
2023-03-17T11:56:44.281Z,17.11
2023-03-17T11:57:44.238Z,17.14
2023-03-17T11:58:44.280Z,17.00
2023-03-17T11:59:44.213Z,16.91
2023-03-17T12:00:44.206Z,17.11
2023-03-17T12:22:26.328Z,17.11
2023-03-17T12:23:26.284Z,17.33
2023-03-17T12:24:26.270Z,17.34
2023-03-17T12:25:26.253Z,17.59
2023-03-17T12:26:26.213Z,17.49
2023-03-17T12:27:26.242Z,17.72
2023-03-17T12:28:26.202Z,17.87
2023-03-17T12:29:26.197Z,17.90
2023-03-17T12:30:26.156Z,17.87
2023-03-17T12:31:26.185Z,17.82
2023-03-17T12:32:26.261Z,17.78
2023-03-17T12:33:26.114Z,17.79
2023-03-17T12:34:26.120Z,17.79
2023-03-17T12:35:26.100Z,17.78
2023-03-17T12:36:26.076Z,17.71
2023-03-17T12:37:26.073Z,17.70
2023-03-17T12:38:26.047Z,17.82
2023-03-17T12:39:26.039Z,18.08
2023-03-17T12:40:26.377Z,18.29
2023-03-17T12:41:26.013Z,18.26
2023-03-17T12:42:26.009Z,17.89
2023-03-17T12:43:26.015Z,17.89
2023-03-17T12:44:25.954Z,18.03
2023-03-17T12:45:25.945Z,18.08
2023-03-17T12:46:26.020Z,17.96
2023-03-17T12:47:25.966Z,18.03
2023-03-17T12:48:25.931Z,18.35
2023-03-17T12:49:25.967Z,18.37
2023-03-17T12:50:25.873Z,18.52
2023-03-17T12:51:25.920Z,18.50
2023-03-17T12:52:25.860Z,18.37
2023-03-17T12:53:25.846Z,18.11
2023-03-17T12:54:25.871Z,18.21
2023-03-17T12:55:25.824Z,18.17
2023-03-17T12:56:25.811Z,18.57
2023-03-17T12:57:25.792Z,18.35
2023-03-17T12:58:26.505Z,18.78
2023-03-17T12:59:25.781Z,18.92
2023-03-17T13:00:25.785Z,18.95
2023-03-17T13:01:25.789Z,19.04
2023-03-17T13:02:25.718Z,19.06
2023-03-17T13:03:25.793Z,19.16
2023-03-17T13:04:27.139Z,19.44
2023-03-17T13:05:25.679Z,19.62
2023-03-17T13:06:25.650Z,19.29
2023-03-17T13:07:25.654Z,19.32
2023-03-17T13:08:25.630Z,19.50
2023-03-17T13:09:25.604Z,19.26
2023-03-17T13:10:25.598Z,19.07
2023-03-17T13:11:25.595Z,18.91
2023-03-17T13:12:25.572Z,19.04
2023-03-17T13:13:25.600Z,19.25
2023-03-17T13:14:25.550Z,19.81
2023-03-17T13:15:25.583Z,19.92
2023-03-17T13:16:26.709Z,20.01
2023-03-17T13:17:25.552Z,20.42
2023-03-17T13:18:25.478Z,20.50
2023-03-17T13:19:25.533Z,20.48
2023-03-17T13:20:25.455Z,20.39
2023-03-17T13:21:25.511Z,20.29
2023-03-17T13:22:25.497Z,19.96
2023-03-17T13:23:25.445Z,19.87
2023-03-17T13:24:25.402Z,19.68
2023-03-17T13:25:25.415Z,19.51
2023-03-17T13:26:25.456Z,19.33
2023-03-17T13:27:25.373Z,18.98
2023-03-17T13:28:25.368Z,18.92
2023-03-17T13:29:25.417Z,18.69
2023-03-17T13:30:25.361Z,18.75
2023-03-17T13:31:25.388Z,18.70
2023-03-17T13:32:25.305Z,18.69
2023-03-17T13:35:53.800Z,18.42
2023-03-17T13:36:53.744Z,18.65
2023-03-17T13:39:17.755Z,18.70
2023-03-17T13:39:56.504Z,18.66
2023-03-17T13:40:56.514Z,18.69
2023-03-17T13:41:57.665Z,18.91
2023-03-17T13:42:56.465Z,19.23
2023-03-17T13:43:56.464Z,19.26
2023-03-17T13:44:56.441Z,19.44
2023-03-17T13:45:56.422Z,19.65
2023-03-17T13:46:56.539Z,19.59
2023-03-17T13:47:56.485Z,19.81
2023-03-17T13:48:56.390Z,19.98
2023-03-17T13:49:56.362Z,19.86
2023-03-17T13:50:56.357Z,19.94
2023-03-17T13:52:00.185Z,19.99
2023-03-17T13:52:56.344Z,20.16
2023-03-17T13:53:56.296Z,20.13
2023-03-17T13:54:56.304Z,20.17
2023-03-17T13:55:56.304Z,20.32
2023-03-17T13:56:56.280Z,20.11
2023-03-17T13:57:56.273Z,20.05
2023-03-17T13:58:56.238Z,19.94
2023-03-17T13:59:56.214Z,19.88
2023-03-17T14:00:56.240Z,19.66
2023-03-17T14:01:56.211Z,19.65
2023-03-17T14:02:56.198Z,19.55
2023-03-17T14:03:56.183Z,19.80
2023-03-17T14:04:56.161Z,19.69
2023-03-17T14:05:56.163Z,19.56
2023-03-17T14:09:51.698Z,18.47
